Time;durP1;ratioP1;P1;durP2;ratioP2;P2;SDS_P1;SDS_P2;PMS_P1;PMS_P2;Temp;Humidity;BMP_temperature;BMP_pressure;BME280_temperature;BME280_humidity;BME280_pressure;Samples;Min_cycle;Max_cycle;Signal;HPM_P1;HPM_P2
2023/10/13 00:00:29;;;;;;;13.45;6.60;;;;;;;17.02;100.00;101071.69;5075036;28;20044;-68
2023/10/13 00:03:18;;;;;;;12.27;6.25;;;;;;;17.02;100.00;101066.19;5040620;28;20041;-67
2023/10/13 00:06:08;;;;;;;14.40;6.60;;;;;;;17.01;100.00;101058.25;5059609;28;20086;-68
2023/10/13 00:08:56;;;;;;;12.18;6.65;;;;;;;17.01;100.00;101061.81;5041356;28;20037;-68
2023/10/13 00:11:44;;;;;;;14.25;6.65;;;;;;;17.02;100.00;101054.34;5055087;28;20041;-68
2023/10/13 00:14:35;;;;;;;11.50;6.13;;;;;;;17.01;100.00;101053.53;5058643;28;20057;-68
2023/10/13 00:17:24;;;;;;;12.50;6.75;;;;;;;17.01;100.00;101048.03;5054289;28;20159;-68
2023/10/13 00:20:38;;;;;;;15.18;6.43;;;;;;;17.02;100.00;101048.84;5040994;28;20168;-68
2023/10/13 00:23:21;;;;;;;11.80;6.53;;;;;;;17.03;100.00;101045.00;5054209;28;20079;-67
2023/10/13 00:26:09;;;;;;;11.80;6.60;;;;;;;17.01;100.00;101042.53;5072896;28;20052;-67
2023/10/13 00:29:08;;;;;;;15.20;6.90;;;;;;;17.02;100.00;101038.66;5073355;28;20444;-67
2023/10/13 00:31:57;;;;;;;11.73;6.30;;;;;;;17.02;100.00;101038.66;5072449;28;20059;-67
2023/10/13 00:34:45;;;;;;;10.02;6.00;;;;;;;17.02;100.00;101038.66;5045830;28;20053;-68
2023/10/13 00:37:43;;;;;;;10.23;6.18;;;;;;;17.02;100.00;101027.63;5040950;28;20176;-68
2023/10/13 00:46:12;;;;;;;12.80;6.05;;;;;;;17.02;100.00;101030.38;5031890;28;20052;-66
2023/10/13 00:49:08;;;;;;;12.73;5.90;;;;;;;17.02;100.00;101026.81;5033977;28;20513;-65
2023/10/13 00:51:57;;;;;;;11.93;5.68;;;;;;;17.01;100.00;101020.50;5033074;28;20398;-65
2023/10/13 00:54:46;;;;;;;11.15;5.82;;;;;;;17.02;100.00;101019.38;5033057;28;20072;-66
2023/10/13 00:57:34;;;;;;;9.07;5.60;;;;;;;17.01;100.00;101014.19;5025701;28;20045;-65
2023/10/13 01:00:28;;;;;;;10.43;5.60;;;;;;;17.01;100.00;101003.19;5034504;28;20041;-65
2023/10/13 01:03:25;;;;;;;11.73;5.75;;;;;;;17.00;100.00;101002.38;5013317;28;20038;-66
2023/10/13 01:06:16;;;;;;;10.32;5.38;;;;;;;16.98;100.00;100996.38;5013391;28;20046;-67
2023/10/13 01:09:18;;;;;;;9.98;5.30;;;;;;;16.98;100.00;100993.59;5012462;28;20054;-68
2023/10/13 01:12:08;;;;;;;14.65;5.65;;;;;;;16.97;100.00;100991.97;5023253;28;20041;-68
2023/10/13 01:14:57;;;;;;;10.00;5.60;;;;;;;16.97;100.00;100991.97;5032030;28;20041;-69
2023/10/13 01:17:46;;;;;;;13.48;6.10;;;;;;;16.96;100.00;100989.53;5033023;28;20489;-68
2023/10/13 01:20:42;;;;;;;11.55;5.38;;;;;;;16.95;100.00;100988.69;5034392;28;20049;-68
2023/10/13 01:23:37;;;;;;;;;;;;;;;16.95;100.00;100977.69;5033785;28;20077;-68
2023/10/13 01:26:26;;;;;;;10.23;4.70;;;;;;;16.96;100.00;100971.06;5033993;28;19920;-68
2023/10/13 01:29:14;;;;;;;10.88;4.85;;;;;;;16.95;100.00;100972.19;5033637;28;20045;-68
2023/10/13 01:32:03;;;;;;;10.63;5.20;;;;;;;16.96;100.00;100971.06;5032922;28;20119;-69
2023/10/13 01:34:55;;;;;;;10.07;4.70;;;;;;;16.95;100.00;100966.66;5033958;28;20041;-69
2023/10/13 01:37:44;;;;;;;10.07;5.13;;;;;;;16.96;100.00;100965.56;5033464;28;20068;-68
2023/10/13 01:40:34;;;;;;;11.38;4.80;;;;;;;16.95;100.00;100958.41;5034210;28;20080;-69
2023/10/13 01:43:23;;;;;;;9.80;5.15;;;;;;;16.94;100.00;100950.50;5032191;28;20120;-68
2023/10/13 01:46:15;;;;;;;10.30;4.75;;;;;;;16.94;100.00;100947.72;5020934;28;20060;-68
2023/10/13 01:49:04;;;;;;;11.70;4.85;;;;;;;16.94;100.00;100936.72;5021641;28;20048;-69
2023/10/13 01:51:52;;;;;;;11.30;5.28;;;;;;;16.94;100.00;100939.47;5020382;28;20041;-68
2023/10/13 01:54:41;;;;;;;9.68;4.72;;;;;;;16.92;100.00;100939.78;5012258;28;20053;-69
2023/10/13 01:57:29;;;;;;;9.60;5.20;;;;;;;16.92;100.00;100926.00;5022010;28;20049;-68
2023/10/13 02:00:20;;;;;;;7.82;4.28;;;;;;;16.91;100.00;100927.16;5032552;28;20056;-68
2023/10/13 02:03:18;;;;;;;9.25;4.60;;;;;;;16.92;100.00;100928.75;5033774;28;20056;-69
2023/10/13 02:06:10;;;;;;;9.10;4.25;;;;;;;16.92;100.00;100917.75;5027119;28;20172;-68
2023/10/13 02:09:03;;;;;;;7.90;4.18;;;;;;;16.91;100.00;100916.13;5013519;28;20056;-68
2023/10/13 02:11:54;;;;;;;10.77;4.47;;;;;;;16.91;100.00;100910.63;5026607;28;20056;-68
2023/10/13 02:14:44;;;;;;;8.95;4.88;;;;;;;16.91;100.00;100904.28;5036876;28;20388;-67
2023/10/13 02:17:42;;;;;;;10.15;4.47;;;;;;;16.90;100.00;100903.47;5040323;28;20161;-67
2023/10/13 02:20:41;;;;;;;8.38;4.65;;;;;;;16.91;100.00;100896.03;5041288;28;20049;-68
2023/10/13 02:23:29;;;;;;;13.52;5.07;;;;;;;16.90;100.00;100895.22;5038422;28;20077;-69
2023/10/13 02:26:51;;;;;;;9.48;4.47;;;;;;;16.91;100.00;100893.28;5005776;28;20420;-68
2023/10/13 02:29:39;;;;;;;9.70;4.57;;;;;;;16.90;100.00;100895.22;5037459;28;20168;-68
2023/10/13 02:32:30;;;;;;;7.05;4.43;;;;;;;16.90;100.00;100897.97;5043150;28;20053;-68
2023/10/13 02:35:18;;;;;;;9.63;4.15;;;;;;;16.91;100.00;100893.28;5039476;28;20052;-67
2023/10/13 02:38:10;;;;;;;8.85;4.47;;;;;;;16.91;100.00;100894.13;5081889;28;20052;-64
2023/10/13 02:41:07;;;;;;;8.95;4.63;;;;;;;16.90;100.00;100881.47;5079545;28;20048;-62
2023/10/13 02:43:57;;;;;;;10.75;5.20;;;;;;;16.91;100.00;100877.59;5059717;28;20123;-69
2023/10/13 02:46:50;;;;;;;10.38;5.72;;;;;;;16.89;100.00;100857.03;5060330;28;20060;-62
2023/10/13 02:49:42;;;;;;;12.95;5.40;;;;;;;16.89;100.00;100852.31;5059956;28;20045;-66
2023/10/13 02:52:37;;;;;;;12.25;4.85;;;;;;;16.88;100.00;100850.69;5072593;28;20049;-67
2023/10/13 02:55:27;;;;;;;10.57;5.18;;;;;;;16.88;100.00;100839.66;5060194;28;20131;-67
2023/10/13 02:58:17;;;;;;;9.35;5.60;;;;;;;16.88;100.00;100839.66;5058239;28;20103;-68
2023/10/13 03:01:16;;;;;;;11.10;5.95;;;;;;;16.89;100.00;100837.75;5057742;28;20052;-68
2023/10/13 03:04:14;;;;;;;10.65;5.45;;;;;;;16.89;100.00;100829.50;5070589;28;20047;-67
2023/10/13 03:07:03;;;;;;;14.25;7.05;;;;;;;16.89;100.00;100818.50;5062543;28;20571;-68
2023/10/13 03:09:52;;;;;;;12.63;6.50;;;;;;;16.89;100.00;100813.78;5057732;28;20049;-68
2023/10/13 03:12:41;;;;;;;12.05;6.75;;;;;;;16.89;100.00;100808.28;5057484;28;20124;-68
2023/10/13 03:15:32;;;;;;;12.40;7.13;;;;;;;16.89;100.00;100802.78;5062712;28;20072;-68
2023/10/13 03:18:20;;;;;;;8.18;5.68;;;;;;;16.90;100.00;100804.41;5065186;28;20047;-68
2023/10/13 03:21:08;;;;;;;14.48;7.60;;;;;;;16.90;100.00;100795.34;5062837;28;20135;-68
2023/10/13 03:24:04;;;;;;;14.25;7.45;;;;;;;16.89;100.00;100791.78;5062814;28;20049;-68
2023/10/13 03:26:52;;;;;;;14.10;7.57;;;;;;;16.89;100.00;100780.78;5076032;28;20511;-68
2023/10/13 03:29:42;;;;;;;14.80;8.35;;;;;;;16.87;100.00;100771.19;5060612;28;20137;-68
2023/10/13 03:32:31;;;;;;;19.38;9.35;;;;;;;16.86;100.00;100770.41;5061696;28;20053;-68
2023/10/13 03:35:24;;;;;;;18.42;8.93;;;;;;;16.85;100.00;100766.00;5060618;28;20110;-67
2023/10/13 03:38:18;;;;;;;16.48;8.98;;;;;;;16.85;100.00;100759.69;5073880;28;20063;-68
2023/10/13 03:41:20;;;;;;;15.27;8.75;;;;;;;16.85;100.00;100759.69;5059239;28;20048;-68
2023/10/13 03:44:17;;;;;;;17.27;9.77;;;;;;;16.84;100.00;100742.38;5074380;28;20515;-69
2023/10/13 03:47:17;;;;;;;17.75;9.52;;;;;;;16.85;100.00;100734.91;5060753;28;20047;-67
2023/10/13 03:50:15;;;;;;;17.23;9.43;;;;;;;16.87;100.00;100721.66;5071947;28;20123;-69
2023/10/13 03:53:06;;;;;;;17.60;9.20;;;;;;;16.85;100.00;100713.72;5073484;28;20048;-68
2023/10/13 03:56:07;;;;;;;17.80;9.82;;;;;;;16.86;100.00;100715.34;5073527;28;20175;-69
2023/10/13 03:59:09;;;;;;;18.00;10.55;;;;;;;16.86;100.00;100726.38;5071641;28;20044;-65
2023/10/13 04:02:02;;;;;;;15.88;10.20;;;;;;;16.87;100.00;100716.97;5058568;28;20127;-66
2023/10/13 04:04:54;;;;;;;17.70;9.57;;;;;;;16.89;100.00;100709.22;5071984;28;20040;-64
2023/10/13 04:08:44;;;;;;;19.05;9.63;;;;;;;16.91;100.00;100714.38;5073477;28;20550;-65
2023/10/13 04:16:54;;;;;;;16.27;10.77;;;;;;;16.92;100.00;100675.56;5058814;28;20045;-65
2023/10/13 04:28:50;;;;;;;13.88;9.05;;;;;;;16.98;100.00;100648.69;5074606;28;20059;-64
2023/10/13 04:31:55;;;;;;;14.13;8.35;;;;;;;16.99;100.00;100640.13;5056435;28;20511;-64
2023/10/13 04:34:46;;;;;;;16.50;9.32;;;;;;;16.99;100.00;100645.66;5027829;28;20053;-64
2023/10/13 04:37:48;;;;;;;13.80;8.98;;;;;;;17.01;100.00;100643.41;5015138;28;1099237;-65
2023/10/13 04:40:58;;;;;;;17.65;9.05;;;;;;;17.03;100.00;100645.84;5069866;28;20447;-65
2023/10/13 04:43:55;;;;;;;14.18;9.05;;;;;;;17.03;100.00;100643.91;5053117;28;20072;-63
2023/10/13 04:53:00;;;;;;;12.32;7.30;;;;;;;17.07;100.00;100632.25;5070659;28;20109;-63
2023/10/13 04:59:17;;;;;;;10.57;6.25;;;;;;;17.09;100.00;100630.00;5049312;28;20044;-64
2023/10/13 05:46:20;;;;;;;11.40;4.28;;;;;;;17.25;100.00;100554.91;5072117;28;20043;-65
2023/10/13 05:52:18;;;;;;;5.90;3.70;;;;;;;17.26;100.00;100563.97;5059460;28;20086;-65
2023/10/13 06:29:25;;;;;;;7.93;4.28;;;;;;;17.36;100.00;100555.41;5052516;28;20041;-65
2023/10/13 06:32:16;;;;;;;7.63;4.00;;;;;;;17.35;100.00;100556.56;5054230;28;20094;-65
2023/10/13 06:35:18;;;;;;;7.32;3.90;;;;;;;17.37;100.00;100551.53;5034869;28;20049;-64
2023/10/13 06:38:15;;;;;;;9.65;4.05;;;;;;;17.36;100.00;100551.84;5049213;28;20140;-65
2023/10/13 06:41:07;;;;;;;9.93;4.85;;;;;;;17.38;100.00;100544.88;5048606;28;20059;-65
2023/10/13 06:44:01;;;;;;;8.60;4.55;;;;;;;17.39;100.00;100543.78;5049725;28;20521;-63
2023/10/13 06:46:49;;;;;;;10.10;4.70;;;;;;;17.39;100.00;100543.78;5050363;28;20049;-65
2023/10/13 06:49:43;;;;;;;11.93;4.85;;;;;;;17.37;100.00;100537.78;5034269;28;20056;-65
2023/10/13 06:52:31;;;;;;;8.73;4.60;;;;;;;17.37;100.00;100526.75;5038268;28;20036;-66
2023/10/13 06:55:27;;;;;;;10.50;5.03;;;;;;;17.37;100.00;100526.75;5050907;28;20080;-63
2023/10/13 06:58:17;;;;;;;16.30;5.93;;;;;;;17.37;100.00;100518.50;5070437;28;20531;-63
2023/10/13 07:01:07;;;;;;;11.65;6.00;;;;;;;17.36;100.00;100513.28;5066919;28;20048;-65
2023/10/13 07:04:01;;;;;;;17.10;6.53;;;;;;;17.35;100.00;100506.19;5068703;28;20139;-64
2023/10/13 07:06:49;;;;;;;18.77;6.45;;;;;;;17.32;100.00;100502.13;5085898;28;20072;-63
2023/10/13 07:12:33;;;;;;;17.98;6.60;;;;;;;17.30;100.00;100498.06;5080589;28;20053;-65
2023/10/13 07:15:26;;;;;;;19.50;6.38;;;;;;;17.30;100.00;100487.88;5077228;28;20075;-65
2023/10/13 07:18:16;;;;;;;15.60;6.03;;;;;;;17.30;100.00;100484.31;5093302;28;20049;-63
2023/10/13 07:21:09;;;;;;;17.48;5.45;;;;;;;17.33;100.00;100486.41;5079204;28;20074;-65
2023/10/13 07:24:07;;;;;;;16.42;5.43;;;;;;;17.34;100.00;100474.25;5083841;28;20090;-65
2023/10/13 07:27:06;;;;;;;19.75;6.43;;;;;;;17.34;100.00;100465.97;5059797;28;20071;-65
2023/10/13 07:30:13;;;;;;;20.02;6.57;;;;;;;17.37;100.00;100459.84;5072946;28;20052;-64
2023/10/13 07:33:02;;;;;;;19.90;7.00;;;;;;;17.39;100.00;100452.88;5071299;28;20568;-62
2023/10/13 07:36:10;;;;;;;16.95;5.53;;;;;;;17.41;100.00;100469.91;5072060;28;20048;-64
2023/10/13 07:42:19;;;;;;;21.27;6.10;;;;;;;17.45;100.00;100468.09;5070043;28;20036;-64
2023/10/13 07:45:11;;;;;;;14.43;5.35;;;;;;;17.44;100.00;100474.75;5071347;28;20055;-64
2023/10/13 07:48:00;;;;;;;19.80;5.97;;;;;;;17.46;100.00;100468.91;5057215;28;20041;-65
2023/10/13 07:51:15;;;;;;;14.65;5.38;;;;;;;17.49;100.00;100456.47;5074591;28;20504;-62
2023/10/13 07:54:08;;;;;;;18.15;5.90;;;;;;;17.56;100.00;100456.78;5058232;28;20184;-66
2023/10/13 07:56:56;;;;;;;16.08;5.70;;;;;;;17.54;100.00;100454.34;5058371;28;20052;-66
2023/10/13 07:59:53;;;;;;;21.05;6.50;;;;;;;17.61;100.00;100448.34;5058747;28;20061;-64
2023/10/13 08:02:51;;;;;;;14.18;5.00;;;;;;;17.61;100.00;100449.16;5051614;28;20057;-64
2023/10/13 08:05:55;;;;;;;22.23;6.90;;;;;;;17.65;100.00;100446.56;5054342;28;20045;-65
2023/10/13 08:08:49;;;;;;;17.15;6.20;;;;;;;17.71;100.00;100437.00;5069005;28;20045;-64
2023/10/13 08:11:37;;;;;;;18.73;6.32;;;;;;;17.78;100.00;100434.56;5049999;28;20517;-64
2023/10/13 08:14:29;;;;;;;16.63;5.78;;;;;;;17.82;100.00;100443.00;5069760;28;20048;-63
2023/10/13 08:17:31;;;;;;;17.80;5.95;;;;;;;17.85;100.00;100437.66;5061818;28;20516;-64
2023/10/13 08:20:22;;;;;;;16.30;6.33;;;;;;;17.90;100.00;100422.09;5070615;28;20043;-64
2023/10/13 08:23:13;;;;;;;17.70;5.90;;;;;;;17.89;100.00;100432.28;5058985;28;20044;-64
2023/10/13 08:32:23;;;;;;;17.73;5.15;;;;;;;18.03;100.00;100440.38;5073722;28;20409;-64
2023/10/13 08:35:23;;;;;;;15.48;5.25;;;;;;;18.05;100.00;100435.34;5073455;28;20075;-64
2023/10/13 08:38:14;;;;;;;15.70;4.95;;;;;;;18.09;100.00;100419.78;5020177;28;20105;-64
2023/10/13 08:44:31;;;;;;;14.30;5.60;;;;;;;18.15;100.00;100409.38;5032866;28;20053;-64
2023/10/13 08:47:36;;;;;;;19.98;5.20;;;;;;;18.16;100.00;100409.06;5031939;28;20163;-65
2023/10/13 08:53:45;;;;;;;13.02;4.85;;;;;;;18.23;100.00;100403.84;5033426;28;20138;-63
2023/10/13 08:56:34;;;;;;;14.00;5.47;;;;;;;18.28;100.00;100400.91;5034404;28;20045;-63
2023/10/13 08:59:33;;;;;;;16.35;5.43;;;;;;;18.29;100.00;100399.75;5031522;28;20072;-64
2023/10/13 09:05:52;;;;;;;16.17;5.05;;;;;;;18.34;100.00;100381.41;5033061;28;20068;-63
2023/10/13 09:09:04;;;;;;;16.95;5.40;;;;;;;18.39;100.00;100383.97;5010069;28;20127;-65
2023/10/13 09:12:07;;;;;;;16.23;5.95;;;;;;;18.40;100.00;100386.41;5032715;28;20536;-65
2023/10/13 09:15:04;;;;;;;15.50;5.07;;;;;;;18.45;100.00;100385.44;5013908;28;20521;-64
2023/10/13 09:17:54;;;;;;;21.55;5.90;;;;;;;18.47;100.00;100385.88;5024378;28;20440;-64
2023/10/13 09:20:43;;;;;;;11.75;5.05;;;;;;;18.49;100.00;100373.38;5013093;28;20188;-63
2023/10/13 09:23:45;;;;;;;13.95;5.43;;;;;;;18.55;100.00;100370.44;5020632;28;20103;-64
2023/10/13 09:26:36;;;;;;;14.77;5.30;;;;;;;18.57;100.00;100381.94;5028428;28;20052;-64
2023/10/13 09:29:24;;;;;;;13.38;5.25;;;;;;;18.57;100.00;100380.00;5031050;28;20049;-63
2023/10/13 09:32:13;;;;;;;11.25;4.90;;;;;;;18.54;100.00;100380.66;5032066;28;20136;-64
2023/10/13 09:35:02;;;;;;;18.98;6.45;;;;;;;18.52;100.00;100378.25;5030363;28;20410;-64
2023/10/13 09:37:51;;;;;;;16.05;5.28;;;;;;;18.53;100.00;100379.03;5039138;28;20060;-64
2023/10/13 09:40:39;;;;;;;19.33;6.13;;;;;;;18.54;100.00;100375.13;5039825;28;20052;-64
2023/10/13 09:43:28;;;;;;;15.57;5.53;;;;;;;18.57;100.00;100371.72;5053737;28;20084;-63
2023/10/13 09:46:23;;;;;;;14.30;5.60;;;;;;;18.59;100.00;100376.91;5071674;28;20040;-65
2023/10/13 09:49:33;;;;;;;17.02;5.60;;;;;;;18.61;100.00;100369.09;5072232;28;20513;-64
2023/10/13 09:52:25;;;;;;;18.60;5.85;;;;;;;18.63;100.00;100362.09;5040495;28;20045;-64
2023/10/13 09:55:26;;;;;;;19.92;5.97;;;;;;;18.65;100.00;100365.34;5046656;28;20134;-60
2023/10/13 09:58:18;;;;;;;31.88;7.70;;;;;;;18.68;100.00;100359.13;5062125;28;20060;-61
2023/10/13 10:01:08;;;;;;;31.30;7.65;;;;;;;18.71;100.00;100355.75;5047114;28;20148;-63
2023/10/13 10:04:13;;;;;;;19.52;6.30;;;;;;;18.76;100.00;100356.66;5057516;28;20040;-65
2023/10/13 10:07:01;;;;;;;31.05;7.15;;;;;;;18.79;100.00;100350.53;5059452;28;20598;-64
2023/10/13 10:09:57;;;;;;;20.45;6.28;;;;;;;18.82;100.00;100347.09;5069345;28;20079;-65
2023/10/13 10:12:55;;;;;;;16.45;6.55;;;;;;;18.82;100.00;100342.38;5072193;28;20049;-65
2023/10/13 10:15:47;;;;;;;29.50;8.10;;;;;;;18.84;100.00;100345.59;5059883;28;20044;-64
2023/10/13 10:18:35;;;;;;;24.20;7.35;;;;;;;18.84;100.00;100336.53;5071961;28;20041;-62
2023/10/13 10:21:35;;;;;;;26.27;8.00;;;;;;;18.82;100.00;100336.03;5072519;28;20416;-64
2023/10/13 10:24:36;;;;;;;22.05;7.57;;;;;;;18.80;100.00;100330.84;5071846;28;20044;-64
2023/10/13 10:27:26;;;;;;;20.23;7.38;;;;;;;18.79;100.00;100320.16;5070979;28;20109;-64
2023/10/13 10:30:27;;;;;;;21.67;6.97;;;;;;;18.78;100.00;100324.06;5070314;28;20044;-64
2023/10/13 10:33:16;;;;;;;22.00;7.68;;;;;;;18.77;100.00;100311.41;5071607;28;20048;-64
2023/10/13 10:36:05;;;;;;;30.38;7.53;;;;;;;18.75;100.00;100311.69;5072962;28;20048;-64
2023/10/13 10:39:17;;;;;;;34.50;16.42;;;;;;;18.77;100.00;100295.66;5052500;28;20048;-63
2023/10/13 10:42:15;;;;;;;188.68;102.10;;;;;;;18.81;100.00;100302.13;5037601;28;20272;-64
2023/10/13 10:45:09;;;;;;;103.38;57.35;;;;;;;18.86;100.00;100303.88;5055701;28;20053;-65
2023/10/13 10:47:58;;;;;;;139.65;77.13;;;;;;;18.89;100.00;100297.66;5049853;28;20051;-64
2023/10/13 10:50:55;;;;;;;117.07;64.55;;;;;;;18.92;100.00;100314.34;5075409;28;20186;-64
2023/10/13 10:53:44;;;;;;;126.75;69.65;;;;;;;18.95;100.00;100299.06;5077064;28;20051;-64
2023/10/13 10:59:25;;;;;;;173.27;99.20;;;;;;;19.02;100.00;100307.63;5077445;28;20056;-65
2023/10/13 11:02:24;;;;;;;147.10;85.80;;;;;;;19.05;100.00;100293.16;5059816;28;20527;-64
2023/10/13 11:05:17;;;;;;;251.88;143.02;;;;;;;19.18;100.00;100265.59;5063622;28;20047;-64
2023/10/13 11:08:12;;;;;;;192.98;116.10;;;;;;;19.22;100.00;100311.53;5085239;28;20125;-64
2023/10/13 11:11:05;;;;;;;239.77;133.50;;;;;;;19.22;100.00;100322.56;5080851;28;20048;-63
2023/10/13 11:14:13;;;;;;;115.38;62.85;;;;;;;19.29;100.00;100300.75;5064141;28;20067;-65
2023/10/13 11:17:18;;;;;;;40.65;18.20;;;;;;;19.31;100.00;100303.13;5070417;28;20469;-65
2023/10/13 11:20:17;;;;;;;76.80;40.50;;;;;;;19.33;100.00;100285.06;5072619;28;20044;-65
2023/10/13 11:23:12;;;;;;;134.43;74.75;;;;;;;19.34;100.00;100269.34;5057186;28;20057;-65
2023/10/13 11:26:00;;;;;;;66.03;37.75;;;;;;;19.36;100.00;100258.72;5060200;28;20683;-65
2023/10/13 11:28:52;;;;;;;194.35;116.70;;;;;;;19.41;100.00;100263.22;5041498;28;20493;-65
2023/10/13 11:31:41;;;;;;;170.50;98.32;;;;;;;19.39;100.00;100269.13;5056821;28;20071;-65
2023/10/13 11:34:39;;;;;;;159.88;94.97;;;;;;;19.40;100.00;100259.66;5068714;28;20056;-65
2023/10/13 11:37:29;;;;;;;105.32;58.70;;;;;;;19.45;100.00;100255.88;5081197;28;20532;-59
2023/10/13 11:40:42;;;;;;;86.57;46.60;;;;;;;19.48;100.00;100242.19;5091206;28;20044;-66
2023/10/13 11:43:26;;;;;;;76.18;40.42;;;;;;;19.49;100.00;100243.81;5068564;28;20179;-66
2023/10/13 11:46:15;;;;;;;95.38;54.08;;;;;;;19.51;100.00;100235.97;5091788;28;20071;-61
2023/10/13 11:52:16;;;;;;;77.63;42.47;;;;;;;19.58;100.00;100236.22;5064244;28;20103;-64
2023/10/13 11:55:04;;;;;;;122.72;68.75;;;;;;;19.65;100.00;100226.53;5059100;28;20048;-64
2023/10/13 11:57:53;;;;;;;103.35;58.72;;;;;;;19.67;100.00;100222.28;5060900;28;20051;-65
2023/10/13 12:12:53;;;;;;;34.78;8.82;;;;;;;19.86;100.00;100188.56;5073898;28;20566;-63
2023/10/13 12:15:52;;;;;;;25.25;7.28;;;;;;;19.88;100.00;100196.53;5042009;28;20077;-63
2023/10/13 12:18:40;;;;;;;22.17;8.02;;;;;;;19.91;100.00;100199.41;5040791;28;20052;-64
2023/10/13 12:21:29;;;;;;;30.30;11.45;;;;;;;19.93;100.00;100196.28;5053449;28;20053;-63
2023/10/13 12:24:39;;;;;;;56.92;31.20;;;;;;;19.93;100.00;100201.81;5045796;28;20044;-64
2023/10/13 12:27:35;;;;;;;82.57;39.90;;;;;;;19.95;100.00;100189.25;5072610;28;20045;-64
2023/10/13 12:30:35;;;;;;;;;;;;;;;19.96;100.00;100185.38;5075631;28;20061;-64
2023/10/13 12:33:25;;;;;;;42.90;22.20;;;;;;;19.99;100.00;100198.50;5074765;28;20384;-64
2023/10/13 12:48:55;;;;;;;51.25;22.80;;;;;;;20.09;100.00;100213.00;5073163;28;20052;-65
2023/10/13 12:54:34;;;;;;;45.88;22.65;;;;;;;20.16;100.00;100175.31;5072607;28;20052;-64
2023/10/13 12:57:28;;;;;;;52.17;23.40;;;;;;;20.19;100.00;100176.56;5058330;28;20056;-63
2023/10/13 13:00:25;;;;;;;39.28;15.15;;;;;;;20.21;100.00;100175.06;5039627;28;20600;-63
2023/10/13 13:03:13;;;;;;;55.08;31.88;;;;;;;20.25;100.00;100172.38;5041658;28;20524;-65
2023/10/13 13:06:07;;;;;;;77.75;40.78;;;;;;;20.27;100.00;100177.56;5069590;28;20614;-64
2023/10/13 13:09:00;;;;;;;68.95;40.67;;;;;;;20.33;100.00;100178.97;5077964;28;20059;-64
2023/10/13 13:11:50;;;;;;;50.53;24.48;;;;;;;20.39;100.00;100167.28;5064786;28;20504;-65
2023/10/13 13:14:41;;;;;;;45.65;21.30;;;;;;;20.40;100.00;100166.13;5067101;28;20484;-65
2023/10/13 13:17:29;;;;;;;46.97;25.02;;;;;;;20.40;100.00;100182.75;5032441;28;20074;-66
2023/10/13 13:20:28;;;;;;;35.50;17.08;;;;;;;20.43;100.00;100165.44;5059245;28;20056;-63
2023/10/13 13:23:16;;;;;;;59.60;31.67;;;;;;;20.46;100.00;100160.34;5073191;28;20052;-62
2023/10/13 13:26:15;;;;;;;37.20;20.13;;;;;;;20.45;100.00;100167.84;5073920;28;20044;-64
2023/10/13 13:29:04;;;;;;;50.80;29.60;;;;;;;20.48;100.00;100166.34;5062431;28;20122;-63
2023/10/13 13:31:52;;;;;;;47.63;26.77;;;;;;;20.50;100.00;100164.84;5077118;28;20048;-63
2023/10/13 13:34:41;;;;;;;38.67;16.35;;;;;;;20.53;100.00;100169.66;5056666;28;20156;-62
2023/10/13 13:37:29;;;;;;;33.92;14.43;;;;;;;20.53;100.00;100160.56;5074001;28;20087;-64
2023/10/13 13:40:21;;;;;;;31.13;14.52;;;;;;;20.52;100.00;100153.44;5063283;28;20052;-64
2023/10/13 13:43:18;;;;;;;34.20;16.05;;;;;;;20.52;100.00;100164.50;5056948;28;20052;-63
2023/10/13 13:46:09;;;;;;;47.80;24.63;;;;;;;20.51;100.00;100160.09;5061181;28;20036;-64
2023/10/13 13:48:59;;;;;;;29.15;12.02;;;;;;;20.53;100.00;100168.84;5074566;28;20463;-64
2023/10/13 13:51:51;;;;;;;34.58;17.50;;;;;;;20.55;100.00;100169.31;5059398;28;20052;-66
2023/10/13 13:54:40;;;;;;;38.70;21.67;;;;;;;20.59;100.00;100167.50;5072325;28;20045;-64
2023/10/13 13:57:30;;;;;;;36.28;19.67;;;;;;;20.58;100.00;100154.81;5071937;28;20075;-63
2023/10/13 14:00:36;;;;;;;31.83;13.65;;;;;;;20.56;100.00;100143.28;5058111;28;20036;-64
2023/10/13 14:03:33;;;;;;;27.92;9.35;;;;;;;20.55;100.00;100155.47;5073725;28;20119;-64
2023/10/13 14:06:23;;;;;;;32.78;18.77;;;;;;;20.55;100.00;100149.94;5058429;28;20041;-64
2023/10/13 14:15:43;;;;;;;33.50;15.75;;;;;;;20.62;100.00;100152.94;5023959;28;20109;-63
2023/10/13 14:18:31;;;;;;;30.17;11.70;;;;;;;20.60;100.00;100149.72;5073253;28;20127;-64
2023/10/13 14:21:24;;;;;;;33.05;11.43;;;;;;;20.60;100.00;100144.97;5073825;28;20126;-64
2023/10/13 14:24:15;;;;;;;34.88;16.25;;;;;;;20.61;100.00;100148.56;4367297;28;10001013;-64
2023/10/13 14:27:10;;;;;;;37.25;21.67;;;;;;;20.60;100.00;100153.28;5071526;28;20054;-63
2023/10/13 14:29:58;;;;;;;31.42;13.52;;;;;;;20.61;100.00;100143.00;5071164;28;20045;-64
2023/10/13 14:32:46;;;;;;;28.45;12.02;;;;;;;20.63;100.00;100154.53;5059211;28;20051;-64
2023/10/13 14:35:36;;;;;;;25.13;11.55;;;;;;;20.65;100.00;100149.47;5057119;28;20052;-64
2023/10/13 14:38:24;;;;;;;31.10;11.13;;;;;;;20.66;99.04;100164.09;5043357;28;20149;-65
2023/10/13 14:41:12;;;;;;;34.33;16.58;;;;;;;20.69;99.69;100146.81;5072549;28;20524;-64
2023/10/13 14:44:05;;;;;;;27.90;8.75;;;;;;;20.70;100.00;100143.66;5071967;28;20512;-64
2023/10/13 14:46:54;;;;;;;28.63;14.35;;;;;;;20.71;100.00;100170.22;5060227;28;20059;-65
2023/10/13 14:49:43;;;;;;;32.88;15.48;;;;;;;20.72;100.00;100151.63;5053279;28;20052;-64
2023/10/13 14:52:31;;;;;;;29.45;16.08;;;;;;;20.73;100.00;100147.69;5058066;28;20044;-64
2023/10/13 14:55:21;;;;;;;26.10;9.23;;;;;;;20.71;97.97;100161.91;5072934;28;20053;-64
2023/10/13 14:58:12;;;;;;;24.75;10.05;;;;;;;20.71;97.85;100161.09;5055899;28;20045;-64
2023/10/13 15:01:00;;;;;;;27.42;13.30;;;;;;;20.75;98.34;100157.25;5037648;28;20792;-63
2023/10/13 15:03:50;;;;;;;26.25;12.85;;;;;;;20.75;98.55;100171.09;5062573;28;20423;-63
2023/10/13 15:06:39;;;;;;;29.45;14.05;;;;;;;20.75;96.35;100171.09;5071222;28;20073;-63
2023/10/13 15:09:27;;;;;;;29.55;13.45;;;;;;;20.74;99.60;100158.44;5069108;28;20131;-65
2023/10/13 15:12:15;;;;;;;24.25;11.25;;;;;;;20.69;100.00;100161.44;5057855;28;20075;-63
2023/10/13 15:15:13;;;;;;;20.85;9.55;;;;;;;20.66;100.00;100161.34;5045229;28;20126;-64
2023/10/13 15:18:01;;;;;;;23.50;10.18;;;;;;;20.60;100.00;100155.25;5050603;28;20053;-65
2023/10/13 15:20:49;;;;;;;20.50;7.88;;;;;;;20.56;100.00;100168.19;5039410;28;20156;-65
2023/10/13 15:23:42;;;;;;;28.92;12.18;;;;;;;20.54;100.00;100165.75;5061712;28;20526;-64
2023/10/13 15:26:38;;;;;;;24.73;11.40;;;;;;;20.53;100.00;100146.72;5040544;28;20060;-64
2023/10/13 15:29:30;;;;;;;24.55;12.90;;;;;;;20.51;100.00;100154.56;5054588;28;20052;-65
2023/10/13 15:35:28;;;;;;;24.10;11.05;;;;;;;20.46;100.00;100118.84;5064110;28;20078;-64
2023/10/13 15:38:16;;;;;;;21.20;8.63;;;;;;;20.42;100.00;100121.53;5069878;28;20555;-64
2023/10/13 15:41:06;;;;;;;29.80;12.02;;;;;;;20.40;100.00;100132.94;5071012;28;20412;-64
2023/10/13 15:43:55;;;;;;;24.17;11.48;;;;;;;20.37;100.00;100105.13;5069426;28;20110;-64
2023/10/13 15:46:46;;;;;;;24.55;11.07;;;;;;;20.35;100.00;100102.75;5072822;28;20813;-63
2023/10/13 15:49:41;;;;;;;21.98;10.43;;;;;;;20.32;100.00;100100.66;5069910;28;20514;-64
2023/10/13 15:52:29;;;;;;;22.08;11.98;;;;;;;20.33;100.00;100093.19;5048719;28;20534;-65
2023/10/13 15:55:18;;;;;;;22.92;10.90;;;;;;;20.31;100.00;100104.59;5071348;28;20629;-64
2023/10/13 15:58:09;;;;;;;22.33;11.38;;;;;;;20.27;100.00;100094.59;5076661;28;20052;-65
2023/10/13 16:00:57;;;;;;;24.42;11.85;;;;;;;20.25;100.00;100086.63;5074838;28;20045;-64